Latest Weather Observations for Delamere

IDD60801

Issued at 1:31 pm CST Sunday 16 December 2018 (issued every 10 minutes, with the page automatically refreshed every 10 minutes)

About weather observations | Map of weather stations | Latest weather observations for NT | Other Formats
Station Details ID: 014949 Name: DELAMERE WEAPONS RANGE Lat: -15.74 Lon: 131.92 Height: 221.0 m
Data from the previous 72 hours. | See also: Recent months at Delamere
Date/Time
CST
Temp
°C
App
Temp
°C
Dew
Point
°C
Rel
Hum
%
Delta-T
°C
Wind Press
QNH
hPa
Press
MSL
hPa
Rain since
9am
mm
Dir  Spd
km/h
Gust
km/h
Spd
kts
Gust
kts
16/01:30pm 34.7 36.5 20.3 43 9.7 NW 11 20 6 11 1005.7 - 0.0
16/01:00pm 33.9 35.3 20.3 45 9.1 NNW 13 19 7 10 1006.1 - 0.0
16/12:30pm 33.5 34.7 19.9 44 9.1 NNW 13 20 7 11 1006.3 - 0.0
16/12:00pm 33.0 34.1 20.5 47 8.4 NNW 15 20 8 11 1006.6 1004.8 0.0
16/11:30am 32.0 33.2 20.6 51 7.7 NNW 15 20 8 11 1007.0 - 0.0
16/11:00am 31.3 33.1 21.2 55 6.8 NNW 13 19 7 10 1007.2 - 0.0
16/10:30am 31.3 32.8 21.2 55 6.8 NNW 15 22 8 12 1007.3 - 0.0
16/10:00am 31.0 32.2 20.6 54 7.0 NNW 15 20 8 11 1007.4 - 0.0
16/09:30am 30.5 31.7 20.7 55 6.6 NW 15 20 8 11 1007.5 - 0.0
16/09:00am 29.6 30.7 20.5 58 6.1 WNW 15 22 8 12 1007.5 1005.7 4.6
16/08:30am 28.5 30.5 20.8 63 5.1 NW 11 17 6 9 1007.3 - 4.6
16/08:00am 27.4 28.9 21.2 69 4.2 NW 15 20 8 11 1006.7 - 4.6
16/07:30am 26.9 28.6 21.0 70 3.9 NNW 13 19 7 10 1006.3 - 4.6
16/07:00am 26.3 27.8 20.6 71 3.8 NNW 13 15 7 8 1005.7 - 4.6
16/06:30am 25.8 27.8 20.8 74 3.3 NNW 11 17 6 9 1005.2 - 4.6
16/06:00am 25.6 27.1 20.6 74 3.3 NNW 13 19 7 10 1004.9 1003.1 4.6
16/05:30am 25.5 26.6 20.5 74 3.3 NNW 15 19 8 10 1004.7 - 4.6
16/05:00am 24.9 27.1 21.2 80 2.5 NW 11 15 6 8 1004.5 - 4.6
16/04:30am 24.7 27.1 20.8 79 2.6 W 9 17 5 9 1004.6 - 4.6
16/04:00am 25.2 26.4 20.0 73 3.4 WSW 13 24 7 13 1005.3 - 4.6
16/03:30am 25.6 25.7 19.9 70 3.7 WSW 19 30 10 16 1005.3 - 4.6
16/03:00am 25.9 25.9 20.9 74 3.3 SW 22 32 12 17 1005.8 1004.0 4.6
16/02:30am 26.3 24.6 20.6 71 3.8 SSW 30 44 16 24 1006.1 - 4.6
16/02:20am 26.3 24.8 20.2 69 4.0 SSW 28 46 15 25 1006.0 - 4.6
16/02:00am 25.8 25.0 20.1 71 3.7 SSW 24 46 13 25 1005.9 - 4.6
16/01:53am 25.4 26.6 20.6 75 3.2 S 15 32 8 17 1005.9 - 4.6
16/01:30am 25.5 27.7 20.3 73 3.4 SSW 9 15 5 8 1003.9 - 4.6
16/01:00am 25.5 27.3 20.3 73 3.4 SW 11 17 6 9 1003.6 - 4.6
16/12:30am 25.4 24.3 19.5 70 3.8 SW 24 39 13 21 1004.1 - 4.6
16/12:00am 26.0 28.1 18.9 65 4.6 N 6 9 3 5 1004.0 1002.2 4.6
 
Date/Time
CST
Temp
°C
App
Temp
°C
Dew
Point
°C
Rel
Hum
%
Delta-T
°C
Wind Press
QNH
hPa
Press
MSL
hPa
Rain since
9am
mm
Dir  Spd
km/h
Gust
km/h
Spd
kts
Gust
kts
15/11:30pm 26.1 28.2 19.0 65 4.6 WSW 6 11 3 6 1004.6 - 4.4
15/11:00pm 27.0 28.5 18.8 60 5.3 WNW 9 13 5 7 1005.5 - 4.4
15/10:30pm 28.1 29.2 17.9 54 6.5 NNE 9 13 5 7 1004.5 - 4.4
15/10:01pm 29.5 25.2 16.0 44 8.4 NNW 33 54 18 29 1003.4 - 4.4
15/10:00pm 29.7 24.7 16.1 43 8.5 NNW 37 54 20 29 1003.1 - 4.4
15/09:58pm 31.2 25.2 14.4 36 10.3 NNW 39 54 21 29 1002.9 - 4.4
15/09:53pm 32.0 29.3 15.5 37 10.3 WNW 24 39 13 21 1003.8 - 4.4
15/09:30pm 25.7 27.5 22.6 83 2.1 NNW 17 26 9 14 1004.7 - 4.4
15/09:21pm 24.8 27.9 22.9 89 1.3 N 11 15 6 8 1005.1 - 4.4
15/09:07pm 24.3 25.1 21.4 84 1.9 WNW 19 32 10 17 1005.5 - 4.4
15/09:00pm 24.3 23.7 20.4 79 2.6 W 24 35 13 19 1005.9 1004.1 4.2
15/08:56pm 25.2 24.3 19.8 72 3.5 W 24 35 13 19 1006.1 - 3.8
15/08:30pm 30.3 32.9 20.5 55 6.5 E 7 17 4 9 1004.6 - 0.0
15/08:00pm 30.5 31.9 21.0 57 6.4 NNE 15 22 8 12 1004.3 - 0.0
15/07:30pm 30.4 31.2 20.6 55 6.6 NE 17 24 9 13 1004.0 - 0.0
15/07:00pm 31.8 32.6 19.8 49 8.0 ENE 15 26 8 14 1003.2 - 0.0
15/06:30pm 33.8 37.0 21.2 47 8.6 N 6 9 3 5 1003.3 - 0.0
15/06:00pm 33.5 35.8 20.6 46 8.7 NNW 9 15 5 8 1002.8 1001.0 0.0
15/05:30pm 33.2 33.9 20.4 47 8.6 WNW 17 26 9 14 1001.9 - 0.0
15/05:00pm 35.7 35.6 19.6 39 10.8 NNW 19 26 10 14 1001.9 - 0.0
15/04:30pm 36.4 36.4 18.9 35 11.6 NNW 17 24 9 13 1001.7 - 0.0
15/04:00pm 36.8 37.1 18.8 34 12.0 NW 15 20 8 11 1002.0 - 0.0
15/03:30pm 36.8 37.1 19.7 36 11.5 NW 17 24 9 13 1002.4 - 0.0
15/03:00pm 36.7 38.0 21.7 42 10.4 NW 17 20 9 11 1002.8 1001.0 0.0
15/02:30pm 35.9 37.0 21.3 42 10.0 N 17 22 9 12 1003.1 - 0.0
15/02:00pm 36.2 38.1 22.0 43 9.8 N 15 24 8 13 1003.6 - 0.0
15/01:30pm 34.8 37.3 21.8 46 8.9 N 11 20 6 11 1004.2 - 0.0
15/01:00pm 34.9 36.5 22.2 47 8.8 NNW 17 26 9 14 1005.0 - 0.0
15/12:30pm 34.9 37.5 22.6 49 8.5 NNW 13 20 7 11 1005.3 - 0.0
15/12:00pm 33.9 36.7 23.0 53 7.6 NW 13 26 7 14 1005.8 1004.0 0.0
15/11:30am 33.4 36.4 23.4 55 7.0 NNW 13 20 7 11 1006.1 - 0.0
15/11:00am 32.3 35.2 22.4 56 6.8 NW 11 22 6 12 1006.3 - 0.0
15/10:30am 31.6 34.7 22.9 60 6.0 NW 11 17 6 9 1006.6 - 0.0
15/10:00am 31.2 34.8 23.8 64 5.2 NW 11 17 6 9 1006.6 - 0.0
15/09:30am 30.0 33.3 23.2 67 4.7 NW 11 20 6 11 1006.8 - 0.0
15/09:00am 29.2 32.5 23.2 70 4.2 NW 11 19 6 10 1006.9 1005.1 0.0
15/08:30am 28.8 32.1 23.2 71 3.9 NNW 11 19 6 10 1006.8 - 0.0
15/08:00am 28.1 31.2 23.5 76 3.2 N 13 15 7 8 1006.7 - 0.0
15/07:30am 27.6 30.1 23.8 80 2.6 N 17 24 9 13 1006.3 - 0.0
15/07:00am 27.2 30.0 24.3 84 2.0 N 17 22 9 12 1006.1 - 0.0
15/06:30am 27.0 30.6 25.0 89 1.4 N 15 22 8 12 1005.7 - 0.0
15/06:00am 27.1 31.4 24.9 88 1.5 N 11 13 6 7 1005.8 1004.0 0.0
15/05:30am 27.3 31.9 24.7 86 1.8 NNE 9 11 5 6 1005.3 - 0.0
15/05:00am 27.4 32.0 24.7 85 1.9 NNW 9 11 5 6 1004.6 - 0.0
15/04:30am 27.5 31.9 24.5 84 2.1 N 9 13 5 7 1004.1 - 0.0
15/04:00am 27.7 31.9 24.1 81 2.5 NNW 9 11 5 6 1004.0 - 0.0
15/03:30am 28.0 32.4 23.8 78 2.9 N 7 11 4 6 1004.3 - 0.0
15/03:00am 28.3 32.8 23.9 77 3.1 NW 7 9 4 5 1004.4 1002.7 0.0
15/02:30am 28.7 33.0 23.6 74 3.5 NW 7 9 4 5 1004.1 - 0.0
15/02:00am 29.1 33.3 23.5 72 3.9 NW 7 9 4 5 1004.4 - 0.0
15/01:30am 29.0 34.0 23.9 74 3.6 NNW 4 7 2 4 1004.4 - 0.0
15/01:00am 29.0 33.0 23.7 73 3.7 NE 9 13 5 7 1004.2 - 0.0
15/12:30am 29.5 35.3 23.9 72 3.9 CALM 0 0 0 0 1004.2 - 0.0
15/12:00am 29.6 34.8 24.2 73 3.8 SW 4 6 2 3 1004.4 1002.7 0.0
 
Date/Time
CST
Temp
°C
App
Temp
°C
Dew
Point
°C
Rel
Hum
%
Delta-T
°C
Wind Press
QNH
hPa
Press
MSL
hPa
Rain since
9am
mm
Dir  Spd
km/h
Gust
km/h
Spd
kts
Gust
kts
14/11:30pm 30.2 34.4 23.1 65 4.9 W 6 6 3 3 1004.9 - 0.0
14/11:00pm 30.6 35.2 23.8 67 4.7 W 6 6 3 3 1005.1 - 0.0
14/10:30pm 31.2 35.3 23.0 61 5.7 W 6 7 3 4 1005.0 - 0.0
14/10:00pm 32.2 35.5 22.6 57 6.6 WNW 9 17 5 9 1004.6 - 0.0
14/09:30pm 31.4 36.6 23.5 63 5.5 SW 2 6 1 3 1004.2 - 0.0
14/09:00pm 32.0 35.9 23.0 59 6.3 SSW 7 11 4 6 1003.8 1002.0 0.0
14/08:30pm 32.6 36.8 23.5 58 6.4 NW 7 9 4 5 1003.4 - 0.0
14/08:00pm 33.1 37.1 22.8 54 7.1 NW 6 7 3 4 1002.9 - 0.0
14/07:30pm 33.7 37.0 21.5 49 8.3 W 6 7 3 4 1002.9 - 0.0
14/07:00pm 34.8 38.3 21.8 46 8.9 W 6 7 3 4 1002.9 - 0.0
14/06:30pm 35.7 37.5 18.7 36 11.3 NW 7 9 4 5 1002.6 - 0.0
14/06:00pm 36.4 38.1 18.5 35 11.9 WNW 7 11 4 6 1002.4 1000.6 0.0
14/05:30pm 37.1 39.4 19.5 35 11.8 W 6 9 3 5 1002.1 - 0.0
14/05:00pm 36.3 38.2 19.7 37 11.1 WNW 9 13 5 7 1001.9 - 0.0
14/04:30pm 36.0 37.6 19.9 39 10.8 WNW 11 19 6 10 1001.8 - 0.0
14/04:00pm 36.2 38.8 20.4 39 10.7 SSW 7 11 4 6 1001.9 - 0.0
14/03:30pm 35.4 37.3 21.3 44 9.6 SW 13 20 7 11 1002.3 - 0.0
14/03:00pm 34.8 36.0 20.7 43 9.6 WSW 15 24 8 13 1002.7 1000.9 0.0
14/02:30pm 36.3 38.8 21.7 42 10.1 SSW 11 19 6 10 1002.9 - 0.0
14/02:00pm 35.2 37.9 22.2 47 9.0 SSW 11 22 6 12 1003.3 - 0.0
14/01:30pm 34.7 36.8 21.0 44 9.3 WSW 11 20 6 11 1003.7 - 0.0
14/01:00pm 33.9 35.8 21.3 47 8.6 SSW 13 24 7 13 1004.2 - 0.0
14/12:30pm 33.9 36.2 22.0 49 8.2 SSW 13 30 7 16 1004.6 - 0.0
14/12:00pm 33.1 35.2 20.9 48 8.3 SW 11 22 6 12 1005.2 1003.4 0.0
14/11:30am 32.3 33.8 21.2 52 7.5 SSW 15 24 8 13 1005.8 - 0.0
14/11:00am 31.3 32.8 20.6 53 7.2 SW 13 20 7 11 1006.3 - 0.0
14/10:30am 30.5 32.8 21.3 58 6.2 SW 11 17 6 9 1006.3 - 0.0
14/10:00am 29.4 31.8 21.6 63 5.3 SW 11 15 6 8 1006.5 - 0.0
14/09:30am 28.6 31.3 22.1 68 4.4 SW 11 19 6 10 1006.8 - 0.0
14/09:00am 27.6 31.4 22.8 75 3.3 S 7 11 4 6 1007.0 1005.2 28.0
14/08:30am 26.8 31.4 22.4 77 3.0 SW 2 7 1 4 1006.8 - 28.0
14/08:00am 26.0 31.0 22.5 81 2.4 CALM 0 0 0 0 1006.5 - 28.0
14/07:30am 25.4 29.3 22.5 84 2.0 SW 6 7 3 4 1006.2 - 28.0
14/07:00am 25.1 28.8 22.6 86 1.7 W 7 11 4 6 1005.9 - 28.0
14/06:30am 25.1 28.8 22.6 86 1.7 SW 7 11 4 6 1005.7 - 28.0
14/06:00am 25.1 28.0 22.4 85 1.8 W 11 15 6 8 1004.9 1003.1 28.0
14/05:30am 25.1 27.7 22.6 86 1.7 WNW 13 20 7 11 1005.2 - 28.0
14/05:00am 25.2 27.8 22.7 86 1.7 W 13 19 7 10 1005.5 - 28.0
14/04:30am 25.0 27.4 22.9 88 1.4 W 15 20 8 11 1005.7 - 28.0
14/04:00am 24.8 28.0 23.0 90 1.2 WSW 11 17 6 9 1005.3 - 28.0
14/03:30am 24.8 28.3 22.9 89 1.3 WSW 9 13 5 7 1004.7 - 28.0
14/03:00am 25.0 29.5 22.9 88 1.4 W 4 9 2 5 1004.7 1003.0 28.0
14/02:30am 24.9 29.0 23.3 91 1.1 WNW 7 11 4 6 1004.7 - 28.0
14/02:00am 24.8 28.9 23.0 90 1.2 WSW 6 7 3 4 1004.9 - 28.0
14/01:30am 24.7 28.2 22.9 90 1.2 SSW 9 15 5 8 1005.1 - 28.0
14/01:00am 24.6 26.2 22.8 90 1.2 SSW 19 39 10 21 1005.5 - 28.0
14/12:30am 24.9 28.1 22.4 86 1.7 NNE 9 13 5 7 1004.7 - 28.0
14/12:00am 24.9 27.8 22.4 86 1.7 NE 11 13 6 7 1003.9 1002.1 28.0
 
Date/Time
CST
Temp
°C
App
Temp
°C
Dew
Point
°C
Rel
Hum
%
Delta-T
°C
Wind Press
QNH
hPa
Press
MSL
hPa
Rain since
9am
mm
Dir  Spd
km/h
Gust
km/h
Spd
kts
Gust
kts
13/11:30pm 24.9 28.2 22.6 87 1.6 NE 9 11 5 6 1003.4 - 28.0
13/11:00pm 24.9 27.6 22.2 85 1.8 N 11 15 6 8 1004.1 - 28.0
13/10:30pm 24.7 27.1 22.2 86 1.7 W 13 20 7 11 1004.6 - 28.0
13/10:00pm 24.2 27.3 22.1 88 1.4 W 9 15 5 8 1005.4 - 28.0
13/09:30pm 23.8 26.3 21.7 88 1.4 WSW 11 19 6 10 1005.9 - 27.6
13/09:00pm 23.6 25.3 20.9 85 1.8 NW 13 19 7 10 1005.5 1003.7 27.6
13/08:30pm 24.9 26.1 19.9 74 3.3 WSW 13 24 7 13 1005.8 - 27.0
13/08:04pm 24.6 22.7 21.3 82 2.2 WSW 33 56 18 30 1005.3 - 21.8
13/08:03pm 24.5 24.4 23.5 94 0.7 WSW 30 46 16 25 1006.0 - 20.4
13/08:00pm 24.8 23.4 23.6 93 0.8 SSW 37 46 20 25 1006.0 - 16.0
13/07:59pm 25.0 23.6 23.6 92 1.0 SSW 37 46 20 25 1005.9 - 14.8
13/07:30pm 26.3 28.7 22.2 78 2.8 S 13 24 7 13 1004.7 - 8.6
13/07:00pm 26.8 29.7 21.8 74 3.4 N 9 15 5 8 1003.3 - 8.6
13/06:30pm 26.5 29.8 21.5 74 3.4 NW 6 9 3 5 1002.1 - 8.6
13/06:00pm 25.6 27.2 21.5 78 2.8 WNW 15 24 8 13 1001.8 1000.0 8.6
13/05:30pm 25.0 26.9 22.7 87 1.6 W 17 24 9 13 1003.2 - 8.6
13/05:17pm 24.2 27.3 22.8 92 0.9 WSW 11 28 6 15 1003.8 - 8.2
13/05:05pm 22.4 20.5 21.0 92 0.9 SSE 32 72 17 39 1005.8 - 4.4
13/05:00pm 23.0 17.8 20.5 86 1.6 SE 48 72 26 39 1005.3 - 0.4
13/04:53pm 26.3 21.1 18.7 63 4.9 SE 44 70 24 38 1004.9 - 0.0
13/04:52pm 27.1 21.9 18.4 59 5.6 SE 43 61 23 33 1004.9 - 0.0
13/04:46pm 30.1 26.9 18.2 49 7.7 E 32 50 17 27 1004.3 - 0.0
13/04:40pm 30.8 27.4 16.8 43 8.9 E 30 43 16 23 1003.8 - 0.0
13/04:30pm 35.6 37.6 20.7 41 10.1 W 11 24 6 13 1002.7 - 0.0
13/04:00pm 35.0 35.3 20.5 42 9.8 WNW 19 28 10 15 1001.4 - 0.0
13/03:30pm 35.8 36.1 20.5 41 10.4 WNW 19 26 10 14 1001.1 - 0.0
13/03:00pm 36.1 36.0 19.5 37 11.2 WNW 19 26 10 14 1002.2 1000.4 0.0
13/02:30pm 36.6 36.5 19.5 36 11.5 WNW 19 32 10 17 1002.7 - 0.0
13/02:00pm 36.0 35.8 19.4 37 11.1 WSW 19 35 10 19 1003.1 - 0.0

Other Formats:

Comma delimited format used in spreadsheet applications
http://www.bom.gov.au/fwo/IDD60801/IDD60801.94225.axf

JavaScript Object Notation format (JSON) in row-major order
http://www.bom.gov.au/fwo/IDD60801/IDD60801.94225.json